createdAt,value
2022-08-04T00:15:22.240Z,1014.19
2022-08-04T00:45:22.340Z,1014.21
2022-08-04T01:15:22.255Z,1014.31
2022-08-04T01:45:22.274Z,1014.35
2022-08-04T02:15:22.256Z,1014.25
2022-08-04T02:45:22.251Z,1014.14
2022-08-04T03:15:22.269Z,1014.09
2022-08-04T03:45:24.101Z,1014.11
2022-08-04T04:15:22.271Z,1014.12
2022-08-04T04:45:22.268Z,1014.15
2022-08-04T05:15:25.483Z,1014.34
2022-08-04T05:45:22.298Z,1014.31
2022-08-04T06:15:22.304Z,1014.43
2022-08-04T06:45:22.354Z,1014.52
2022-08-04T07:15:22.331Z,1014.5
2022-08-04T07:45:22.297Z,1014.28
2022-08-04T08:15:22.311Z,1014.16
2022-08-04T08:45:22.312Z,1013.99
2022-08-04T09:15:22.313Z,1013.95
2022-08-04T09:45:26.609Z,1013.78
2022-08-04T10:15:22.318Z,1013.67
2022-08-04T10:45:22.321Z,1013.38
2022-08-04T11:15:22.331Z,1013.24
2022-08-04T11:45:22.335Z,1013.17
2022-08-04T12:15:22.371Z,1012.89
2022-08-04T12:45:22.374Z,1012.76
2022-08-04T13:15:22.354Z,1012.52
2022-08-04T13:45:22.366Z,1012.31
2022-08-04T14:15:22.358Z,1012.14
2022-08-04T14:45:22.383Z,1011.9
2022-08-04T15:15:36.354Z,1011.76
2022-08-04T15:45:22.382Z,1011.57
2022-08-04T16:15:22.387Z,1011.36
2022-08-04T16:45:22.389Z,1011.26
2022-08-04T17:15:22.419Z,1011.01
2022-08-04T17:45:52.914Z,1010.85
2022-08-04T18:15:22.412Z,1010.91
2022-08-04T18:45:22.407Z,1010.98
2022-08-04T19:15:22.417Z,1011.18
2022-08-04T19:45:40.183Z,1011.38
2022-08-04T20:15:22.453Z,1011.55
2022-08-04T20:45:22.644Z,1011.6
2022-08-04T21:15:24.838Z,1011.57
2022-08-04T21:45:22.463Z,1011.71
2022-08-04T22:16:03.549Z,1011.69
2022-08-04T22:45:28.928Z,1011.66
2022-08-04T23:15:22.478Z,1011.48
2022-08-04T23:46:04.105Z,1011.39
